Time;durP1;ratioP1;P1;durP2;ratioP2;P2;SDS_P1;SDS_P2;PMS_P1;PMS_P2;Temp;Humidity;BMP_temperature;BMP_pressure;BME280_temperature;BME280_humidity;BME280_pressure;Samples;Min_cycle;Max_cycle;Signal;HPM_P1;HPM_P2
2021/07/08 00:00:48;;;;;;;6.43;5.38;;;;;;;;;;2088776;28;20249;-62
2021/07/08 00:01:48;;;;;;;5.93;4.50;;;;;;;;;;2086595;28;20663;-61
2021/07/08 00:02:49;;;;;;;5.55;5.15;;;;;;;;;;2088249;28;20171;-62
2021/07/08 00:03:49;;;;;;;6.15;5.03;;;;;;;;;;2081716;28;20208;-62
2021/07/08 00:04:49;;;;;;;7.60;5.10;;;;;;;;;;2088547;28;20713;-61
2021/07/08 00:05:49;;;;;;;5.43;4.82;;;;;;;;;;2088502;28;20184;-62
2021/07/08 00:06:50;;;;;;;6.82;5.32;;;;;;;;;;2081521;28;20219;-61
2021/07/08 00:07:50;;;;;;;7.00;5.38;;;;;;;;;;2087922;28;20171;-61
2021/07/08 00:08:50;;;;;;;7.82;4.90;;;;;;;;;;2080765;28;20234;-61
2021/07/08 00:09:50;;;;;;;9.50;4.82;;;;;;;;;;2080271;28;20168;-62
2021/07/08 00:10:54;;;;;;;14.57;5.22;;;;;;;;;;2080013;28;20293;-62
2021/07/08 00:11:55;;;;;;;6.88;5.20;;;;;;;;;;2082461;28;20161;-62
2021/07/08 00:12:56;;;;;;;8.70;4.85;;;;;;;;;;2088665;28;20659;-61
2021/07/08 00:13:56;;;;;;;5.60;5.05;;;;;;;;;;2087926;28;20175;-61
2021/07/08 00:14:56;;;;;;;6.45;5.28;;;;;;;;;;2084775;28;20199;-62
2021/07/08 00:15:57;;;;;;;7.82;5.90;;;;;;;;;;2088017;28;20199;-62
2021/07/08 00:16:57;;;;;;;6.20;5.53;;;;;;;;;;2081965;28;20628;-62
2021/07/08 00:17:58;;;;;;;7.05;5.63;;;;;;;;;;2087914;28;20707;-60
2021/07/08 00:18:59;;;;;;;5.47;4.80;;;;;;;;;;2086465;28;20530;-61
2021/07/08 00:19:59;;;;;;;5.95;5.10;;;;;;;;;;2082788;28;20172;-61
2021/07/08 00:20:59;;;;;;;6.25;5.22;;;;;;;;;;2087830;28;20672;-61
2021/07/08 00:22:00;;;;;;;7.40;5.18;;;;;;;;;;2088396;28;20187;-60
2021/07/08 00:23:00;;;;;;;7.32;5.60;;;;;;;;;;2085860;28;20164;-62
2021/07/08 00:24:00;;;;;;;7.93;5.63;;;;;;;;;;2083160;28;20168;-62
2021/07/08 00:25:01;;;;;;;6.90;4.95;;;;;;;;;;2086273;28;20167;-61
2021/07/08 00:26:01;;;;;;;5.90;5.40;;;;;;;;;;2084642;28;20175;-62
2021/07/08 00:27:02;;;;;;;6.63;5.93;;;;;;;;;;2088105;28;20179;-61
2021/07/08 00:28:06;;;;;;;6.15;5.55;;;;;;;;;;2086104;28;20171;-62
2021/07/08 00:29:06;;;;;;;7.78;5.80;;;;;;;;;;2083746;28;20176;-60
2021/07/08 00:30:07;;;;;;;6.05;5.45;;;;;;;;;;2080483;28;20164;-62
2021/07/08 00:31:08;;;;;;;6.13;5.20;;;;;;;;;;2082801;28;20214;-61
2021/07/08 00:32:08;;;;;;;6.55;5.32;;;;;;;;;;2085553;28;20190;-61
2021/07/08 00:33:08;;;;;;;7.65;5.60;;;;;;;;;;2084291;28;20172;-62
2021/07/08 00:34:09;;;;;;;6.63;5.97;;;;;;;;;;2086002;28;20203;-62
2021/07/08 00:35:10;;;;;;;6.63;5.45;;;;;;;;;;2083094;28;20270;-62
2021/07/08 00:36:10;;;;;;;9.20;6.78;;;;;;;;;;2089125;28;20211;-62
2021/07/08 00:37:10;;;;;;;7.38;6.00;;;;;;;;;;2084627;28;20190;-62
2021/07/08 00:38:10;;;;;;;7.03;5.15;;;;;;;;;;2083121;28;20163;-62
2021/07/08 00:39:11;;;;;;;5.97;5.47;;;;;;;;;;2085565;28;20212;-62
2021/07/08 00:40:12;;;;;;;6.13;5.50;;;;;;;;;;2084695;28;20178;-62
2021/07/08 00:41:12;;;;;;;6.38;5.70;;;;;;;;;;2085244;28;20208;-62
2021/07/08 00:42:13;;;;;;;7.10;5.60;;;;;;;;;;2088490;28;20628;-62
2021/07/08 00:43:13;;;;;;;6.47;5.72;;;;;;;;;;2086864;28;20306;-62
2021/07/08 00:44:13;;;;;;;8.63;5.38;;;;;;;;;;2088978;28;20566;-60
2021/07/08 00:45:15;;;;;;;6.25;5.75;;;;;;;;;;2084915;28;20173;-59
2021/07/08 00:46:15;;;;;;;6.40;5.80;;;;;;;;;;2084143;28;20181;-59
2021/07/08 00:47:15;;;;;;;7.35;6.65;;;;;;;;;;2089071;28;20203;-61
2021/07/08 00:48:15;;;;;;;8.48;5.70;;;;;;;;;;2084906;28;20172;-58
2021/07/08 00:49:16;;;;;;;7.60;5.28;;;;;;;;;;2082777;28;20316;-61
2021/07/08 00:50:17;;;;;;;6.47;5.97;;;;;;;;;;2083685;28;20187;-58
2021/07/08 00:51:17;;;;;;;8.18;5.80;;;;;;;;;;2087736;28;20719;-61
2021/07/08 00:52:18;;;;;;;7.38;5.45;;;;;;;;;;2084530;28;20183;-62
2021/07/08 00:53:20;;;;;;;10.27;6.10;;;;;;;;;;2094361;28;20185;-62
2021/07/08 00:54:20;;;;;;;6.65;5.88;;;;;;;;;;2085152;28;20321;-62
2021/07/08 00:55:21;;;;;;;6.32;5.45;;;;;;;;;;2089045;28;20225;-62
2021/07/08 00:56:22;;;;;;;6.05;5.60;;;;;;;;;;2084912;28;20180;-62
2021/07/08 00:57:23;;;;;;;9.85;6.15;;;;;;;;;;2087895;28;20191;-62
2021/07/08 00:58:24;;;;;;;8.60;6.00;;;;;;;;;;2087175;28;20223;-62
2021/07/08 00:59:24;;;;;;;8.32;5.70;;;;;;;;;;2085563;28;20544;-62
2021/07/08 01:00:30;;;;;;;5.97;5.47;;;;;;;;;;2082188;28;20191;-61
2021/07/08 01:01:31;;;;;;;6.93;5.60;;;;;;;;;;2083530;28;20180;-62
2021/07/08 01:02:31;;;;;;;8.32;5.80;;;;;;;;;;2088083;28;20541;-62
2021/07/08 01:03:33;;;;;;;6.72;6.13;;;;;;;;;;2090802;28;20663;-62
2021/07/08 01:04:34;;;;;;;6.65;6.05;;;;;;;;;;2089541;28;20172;-62
2021/07/08 01:05:35;;;;;;;7.68;6.20;;;;;;;;;;2089793;28;20743;-62
2021/07/08 01:06:40;;;;;;;7.40;5.97;;;;;;;;;;2088402;28;20191;-62
2021/07/08 01:07:40;;;;;;;7.18;6.45;;;;;;;;;;2082550;28;20544;-62
2021/07/08 01:08:41;;;;;;;6.60;5.95;;;;;;;;;;2090358;28;20262;-62
2021/07/08 01:09:41;;;;;;;8.75;7.00;;;;;;;;;;2083409;28;20203;-62
2021/07/08 01:10:42;;;;;;;6.53;5.93;;;;;;;;;;2089148;28;20179;-62
2021/07/08 01:11:43;;;;;;;10.20;7.00;;;;;;;;;;2082664;28;20183;-61
2021/07/08 01:12:43;;;;;;;6.18;5.60;;;;;;;;;;2090653;28;20175;-62
2021/07/08 01:13:44;;;;;;;7.53;6.22;;;;;;;;;;2083950;28;20843;-62
2021/07/08 01:14:44;;;;;;;6.93;6.30;;;;;;;;;;2090158;28;20176;-62
2021/07/08 01:15:44;;;;;;;7.70;6.63;;;;;;;;;;2084794;28;20211;-62
2021/07/08 01:16:44;;;;;;;7.13;6.43;;;;;;;;;;2089433;28;20172;-62
2021/07/08 01:17:45;;;;;;;7.72;6.90;;;;;;;;;;2082255;28;20180;-61
2021/07/08 01:18:45;;;;;;;11.15;6.97;;;;;;;;;;2088495;28;20214;-62
2021/07/08 01:19:46;;;;;;;7.05;6.45;;;;;;;;;;2082590;28;20676;-62
2021/07/08 01:20:46;;;;;;;7.15;5.68;;;;;;;;;;2090027;28;20171;-60
2021/07/08 01:21:46;;;;;;;6.47;5.82;;;;;;;;;;2088292;28;20550;-63
2021/07/08 01:22:48;;;;;;;6.13;5.57;;;;;;;;;;2089589;28;20179;-62
2021/07/08 01:23:48;;;;;;;8.20;6.57;;;;;;;;;;2086896;28;20215;-62
2021/07/08 01:24:49;;;;;;;7.75;6.10;;;;;;;;;;2088753;28;20175;-61
2021/07/08 01:25:49;;;;;;;10.25;6.50;;;;;;;;;;2087510;28;20241;-62
2021/07/08 01:26:50;;;;;;;8.38;6.53;;;;;;;;;;2080595;28;20176;-62
2021/07/08 01:27:51;;;;;;;9.88;6.72;;;;;;;;;;2084960;28;20244;-61
2021/07/08 01:28:52;;;;;;;7.38;6.78;;;;;;;;;;2097364;28;20685;-61
2021/07/08 01:29:53;;;;;;;8.30;7.50;;;;;;;;;;2090076;28;20671;-62
2021/07/08 01:30:53;;;;;;;7.22;6.53;;;;;;;;;;2087554;28;20218;-61
2021/07/08 01:31:54;;;;;;;10.45;6.65;;;;;;;;;;2090294;28;20309;-61
2021/07/08 01:32:55;;;;;;;7.10;6.40;;;;;;;;;;2086833;28;20279;-61
2021/07/08 01:33:55;;;;;;;8.68;6.45;;;;;;;;;;2088424;28;20176;-60
2021/07/08 01:34:55;;;;;;;7.22;6.30;;;;;;;;;;2082668;28;20203;-66
2021/07/08 01:35:56;;;;;;;7.47;6.20;;;;;;;;;;2090213;28;20237;-61
2021/07/08 01:36:56;;;;;;;7.00;6.30;;;;;;;;;;2088998;28;20632;-61
2021/07/08 01:37:56;;;;;;;6.95;6.03;;;;;;;;;;2083141;28;20613;-61
2021/07/08 01:38:57;;;;;;;10.43;7.03;;;;;;;;;;2080060;28;20189;-61
2021/07/08 01:39:59;;;;;;;10.27;6.32;;;;;;;;;;2072399;28;20169;-61
2021/07/08 01:41:00;;;;;;;8.02;6.28;;;;;;;;;;2087210;28;20234;-61
2021/07/08 01:42:00;;;;;;;7.93;6.07;;;;;;;;;;2082027;28;20686;-61
2021/07/08 01:43:00;;;;;;;6.28;5.78;;;;;;;;;;2082811;28;20600;-62
2021/07/08 01:44:00;;;;;;;6.15;5.63;;;;;;;;;;2083417;28;20198;-59
2021/07/08 01:45:01;;;;;;;5.95;5.45;;;;;;;;;;2090082;28;20213;-60
2021/07/08 01:46:01;;;;;;;9.18;6.03;;;;;;;;;;2084524;28;20222;-61
2021/07/08 01:47:02;;;;;;;6.22;5.65;;;;;;;;;;2087875;28;20944;-60
2021/07/08 01:48:02;;;;;;;5.93;5.32;;;;;;;;;;2089865;28;20176;-61
2021/07/08 01:49:03;;;;;;;7.88;5.82;;;;;;;;;;2087847;28;20163;-64
2021/07/08 01:50:04;;;;;;;6.97;5.82;;;;;;;;;;2084280;28;20664;-65
2021/07/08 01:51:06;;;;;;;7.15;6.45;;;;;;;;;;2087501;28;20932;-58
2021/07/08 01:52:06;;;;;;;7.47;6.60;;;;;;;;;;2085610;28;20172;-59
2021/07/08 01:53:06;;;;;;;6.72;6.03;;;;;;;;;;2090425;28;20179;-59
2021/07/08 01:54:10;;;;;;;5.82;5.30;;;;;;;;;;2088640;28;20379;-60
2021/07/08 01:55:10;;;;;;;6.88;5.78;;;;;;;;;;2088603;28;20172;-60
2021/07/08 01:56:11;;;;;;;6.65;6.00;;;;;;;;;;2087124;28;20271;-60
2021/07/08 01:57:11;;;;;;;7.57;5.70;;;;;;;;;;2082412;28;20253;-61
2021/07/08 01:58:11;;;;;;;6.72;6.10;;;;;;;;;;2082223;28;20192;-61
2021/07/08 01:59:11;;;;;;;6.47;5.88;;;;;;;;;;2082170;28;20176;-64
2021/07/08 02:00:12;;;;;;;6.30;5.80;;;;;;;;;;2082537;28;20207;-60
2021/07/08 02:01:13;;;;;;;6.50;5.90;;;;;;;;;;2085479;28;20574;-60
2021/07/08 02:02:13;;;;;;;7.47;6.88;;;;;;;;;;2085234;28;20256;-61
2021/07/08 02:03:13;;;;;;;6.38;5.88;;;;;;;;;;2082452;28;20172;-60
2021/07/08 02:04:13;;;;;;;5.97;5.47;;;;;;;;;;2083948;28;20539;-57
2021/07/08 02:05:14;;;;;;;6.32;5.70;;;;;;;;;;2087812;28;20609;-60
2021/07/08 02:06:14;;;;;;;7.47;4.95;;;;;;;;;;2090539;28;20171;-60
2021/07/08 02:07:14;;;;;;;7.00;6.35;;;;;;;;;;2085451;28;20177;-61
2021/07/08 02:08:15;;;;;;;5.57;5.18;;;;;;;;;;2081838;28;20164;-61
2021/07/08 02:09:15;;;;;;;6.05;5.55;;;;;;;;;;2082473;28;20559;-61
2021/07/08 02:10:16;;;;;;;6.20;5.68;;;;;;;;;;2082750;28;20160;-61
2021/07/08 02:11:16;;;;;;;6.03;5.53;;;;;;;;;;2086712;28;20191;-61
2021/07/08 02:12:17;;;;;;;6.18;5.63;;;;;;;;;;2090077;28;20542;-60
2021/07/08 02:13:17;;;;;;;6.18;5.68;;;;;;;;;;2086009;28;20194;-61
2021/07/08 02:14:17;;;;;;;6.10;5.55;;;;;;;;;;2084162;28;20339;-60
2021/07/08 02:15:18;;;;;;;8.45;5.80;;;;;;;;;;2085148;28;20238;-60
2021/07/08 02:16:18;;;;;;;6.55;5.45;;;;;;;;;;2081591;28;20187;-59
2021/07/08 02:17:18;;;;;;;5.95;5.45;;;;;;;;;;2086576;28;20647;-60
2021/07/08 02:18:19;;;;;;;6.43;5.82;;;;;;;;;;2084778;28;20168;-60
2021/07/08 02:19:19;;;;;;;7.20;5.90;;;;;;;;;;2085745;28;20194;-60
2021/07/08 02:20:19;;;;;;;8.65;6.35;;;;;;;;;;2089090;28;20224;-60
2021/07/08 02:21:20;;;;;;;7.75;6.93;;;;;;;;;;2089053;28;20205;-60
2021/07/08 02:22:20;;;;;;;6.88;6.22;;;;;;;;;;2089616;28;20241;-60
2021/07/08 02:23:20;;;;;;;8.00;6.03;;;;;;;;;;2090393;28;20176;-59
2021/07/08 02:24:20;;;;;;;8.15;6.57;;;;;;;;;;2085027;28;20230;-60
2021/07/08 02:25:21;;;;;;;6.55;5.82;;;;;;;;;;2086807;28;20198;-60
2021/07/08 02:26:21;;;;;;;7.53;6.93;;;;;;;;;;2088770;28;20241;-60
2021/07/08 02:27:21;;;;;;;6.60;5.85;;;;;;;;;;2086733;28;20167;-59
2021/07/08 02:28:21;;;;;;;8.00;6.28;;;;;;;;;;2082191;28;20263;-60
2021/07/08 02:29:22;;;;;;;6.95;6.38;;;;;;;;;;2084081;28;20200;-60
2021/07/08 02:30:23;;;;;;;6.68;5.90;;;;;;;;;;2089117;28;20250;-62
2021/07/08 02:31:23;;;;;;;7.30;6.15;;;;;;;;;;2088914;28;20202;-61
2021/07/08 02:32:23;;;;;;;7.78;6.20;;;;;;;;;;2089809;28;20577;-60
2021/07/08 02:33:24;;;;;;;7.50;6.45;;;;;;;;;;2084339;28;20684;-60
2021/07/08 02:34:24;;;;;;;6.07;5.65;;;;;;;;;;2086590;28;20203;-60
2021/07/08 02:35:25;;;;;;;6.45;5.85;;;;;;;;;;2081528;28;20176;-60
2021/07/08 02:36:26;;;;;;;6.95;6.30;;;;;;;;;;2083023;28;20164;-59
2021/07/08 02:37:26;;;;;;;7.10;6.53;;;;;;;;;;2088618;28;20184;-60
2021/07/08 02:38:26;;;;;;;6.32;5.30;;;;;;;;;;2087035;28;20209;-61
2021/07/08 02:39:26;;;;;;;8.15;6.63;;;;;;;;;;2086117;28;20199;-60
2021/07/08 02:40:28;;;;;;;7.72;7.03;;;;;;;;;;2087164;28;20225;-60
2021/07/08 02:41:29;;;;;;;7.95;7.15;;;;;;;;;;2077992;28;20202;-60
2021/07/08 02:42:29;;;;;;;7.38;6.60;;;;;;;;;;2082997;28;20211;-60
2021/07/08 02:43:29;;;;;;;7.30;6.70;;;;;;;;;;2081821;28;20195;-61
2021/07/08 02:44:30;;;;;;;7.22;6.40;;;;;;;;;;2083082;28;20239;-60
2021/07/08 02:45:31;;;;;;;7.20;6.43;;;;;;;;;;2088019;28;20217;-61
2021/07/08 02:46:32;;;;;;;7.25;6.43;;;;;;;;;;2086750;28;20620;-60
2021/07/08 02:47:32;;;;;;;7.20;6.60;;;;;;;;;;2079149;28;20181;-60
2021/07/08 02:48:33;;;;;;;7.53;6.88;;;;;;;;;;2082469;28;20555;-59
2021/07/08 02:49:33;;;;;;;7.38;6.65;;;;;;;;;;2087591;28;20563;-60
2021/07/08 02:50:34;;;;;;;6.68;6.05;;;;;;;;;;2082894;28;20180;-60
2021/07/08 02:51:34;;;;;;;7.47;6.80;;;;;;;;;;2085386;22;20229;-53
2021/07/08 02:52:34;;;;;;;7.25;5.95;;;;;;;;;;2068415;28;20184;-55
2021/07/08 02:53:35;;;;;;;10.32;6.82;;;;;;;;;;2070140;28;20243;-54
2021/07/08 02:54:36;;;;;;;6.70;6.13;;;;;;;;;;2071319;28;20247;-57
2021/07/08 02:55:36;;;;;;;12.80;7.25;;;;;;;;;;2072013;28;20272;-53
2021/07/08 02:56:37;;;;;;;7.30;6.60;;;;;;;;;;2071156;28;20260;-56
2021/07/08 02:57:38;;;;;;;7.70;7.00;;;;;;;;;;2072766;28;20260;-55
2021/07/08 02:58:38;;;;;;;6.60;6.10;;;;;;;;;;2072949;28;20185;-52
2021/07/08 02:59:39;;;;;;;6.82;6.13;;;;;;;;;;2069142;28;20633;-56
2021/07/08 03:00:39;;;;;;;6.60;6.00;;;;;;;;;;2065534;28;20181;-55
2021/07/08 03:01:39;;;;;;;6.88;6.18;;;;;;;;;;2071942;28;20205;-55
2021/07/08 03:02:40;;;;;;;6.85;6.25;;;;;;;;;;2073080;28;20773;-57
2021/07/08 03:03:40;;;;;;;6.70;6.10;;;;;;;;;;2069366;28;20707;-59
2021/07/08 03:04:40;;;;;;;7.78;7.05;;;;;;;;;;2069604;28;20281;-58
2021/07/08 03:05:41;;;;;;;8.48;7.13;;;;;;;;;;2068084;28;20193;-59
2021/07/08 03:06:41;;;;;;;8.15;7.13;;;;;;;;;;2064673;28;20178;-59
2021/07/08 03:07:42;;;;;;;9.15;7.25;;;;;;;;;;2059487;28;20178;-59
2021/07/08 03:08:42;;;;;;;8.90;8.00;;;;;;;;;;2071301;28;20642;-59
2021/07/08 03:09:42;;;;;;;11.40;8.00;;;;;;;;;;2073140;28;20204;-60
2021/07/08 03:10:42;;;;;;;9.45;8.45;;;;;;;;;;2071017;28;20194;-59
2021/07/08 03:11:43;;;;;;;9.13;8.32;;;;;;;;;;2073166;28;20197;-60
2021/07/08 03:12:43;;;;;;;9.32;8.48;;;;;;;;;;2074116;28;20723;-62
2021/07/08 03:13:43;;;;;;;10.25;8.52;;;;;;;;;;2074148;28;20260;-60
2021/07/08 03:14:44;;;;;;;9.63;8.73;;;;;;;;;;2073949;28;20723;-61
2021/07/08 03:15:44;;;;;;;9.90;9.00;;;;;;;;;;2074292;28;20188;-58
2021/07/08 03:16:44;;;;;;;13.80;11.30;;;;;;;;;;2068165;28;20209;-61
2021/07/08 03:17:45;;;;;;;10.20;8.85;;;;;;;;;;2074755;28;20200;-61
2021/07/08 03:18:45;;;;;;;13.88;10.45;;;;;;;;;;2073228;28;20255;-60
2021/07/08 03:19:45;;;;;;;9.93;8.88;;;;;;;;;;2075586;28;20187;-60
2021/07/08 03:20:46;;;;;;;9.55;8.27;;;;;;;;;;2066148;28;20264;-61
2021/07/08 03:21:46;;;;;;;9.52;8.63;;;;;;;;;;2066535;28;20209;-59
2021/07/08 03:22:47;;;;;;;9.68;8.68;;;;;;;;;;2069941;28;20265;-59
2021/07/08 03:23:47;;;;;;;12.45;9.40;;;;;;;;;;2077135;28;20240;-60
2021/07/08 03:24:47;;;;;;;10.00;8.77;;;;;;;;;;2070060;28;20181;-60
2021/07/08 03:25:47;;;;;;;14.85;10.57;;;;;;;;;;2073794;28;20173;-60
2021/07/08 03:26:48;;;;;;;12.07;10.15;;;;;;;;;;2074111;28;20559;-61
2021/07/08 03:27:48;;;;;;;11.57;9.10;;;;;;;;;;2073506;28;20172;-60
2021/07/08 03:28:49;;;;;;;14.82;10.82;;;;;;;;;;2072702;28;20181;-60
2021/07/08 03:29:49;;;;;;;11.50;9.48;;;;;;;;;;2066369;28;20184;-59
2021/07/08 03:30:49;;;;;;;9.55;8.55;;;;;;;;;;2069902;28;20272;-63
2021/07/08 03:31:49;;;;;;;8.90;8.13;;;;;;;;;;2070057;28;20201;-60
2021/07/08 03:32:51;;;;;;;8.70;7.90;;;;;;;;;;2068712;28;20180;-59
2021/07/08 03:33:51;;;;;;;9.40;8.50;;;;;;;;;;2073270;28;20617;-58
2021/07/08 03:34:51;;;;;;;11.38;8.32;;;;;;;;;;2068586;28;20196;-58
2021/07/08 03:35:51;;;;;;;10.05;8.45;;;;;;;;;;2072566;28;20515;-60
2021/07/08 03:36:52;;;;;;;10.45;8.68;;;;;;;;;;2072811;28;20180;-59
2021/07/08 03:37:52;;;;;;;9.07;8.15;;;;;;;;;;2069296;28;20249;-60
2021/07/08 03:38:52;;;;;;;11.45;8.90;;;;;;;;;;2071882;28;20255;-58
2021/07/08 03:39:54;;;;;;;8.43;7.63;;;;;;;;;;2072477;28;20261;-60
2021/07/08 03:40:54;;;;;;;8.48;7.68;;;;;;;;;;2073108;28;20622;-60
2021/07/08 03:41:54;;;;;;;13.65;8.05;;;;;;;;;;2073026;28;20192;-61
2021/07/08 03:42:55;;;;;;;7.72;6.97;;;;;;;;;;2067748;28;20265;-59
2021/07/08 03:43:55;;;;;;;9.13;7.82;;;;;;;;;;2073515;28;20204;-61
2021/07/08 03:44:55;;;;;;;9.98;7.90;;;;;;;;;;2071501;28;20166;-59
2021/07/08 03:45:56;;;;;;;8.93;7.78;;;;;;;;;;2071039;28;20646;-60
2021/07/08 03:46:56;;;;;;;9.23;8.30;;;;;;;;;;2070297;28;20529;-60
2021/07/08 03:47:56;;;;;;;9.27;8.10;;;;;;;;;;2074385;28;20577;-60
2021/07/08 03:48:56;;;;;;;8.45;7.65;;;;;;;;;;2073492;28;20176;-60
2021/07/08 03:49:57;;;;;;;8.70;7.82;;;;;;;;;;2067956;28;20224;-58
2021/07/08 03:50:58;;;;;;;8.77;7.68;;;;;;;;;;2067692;28;20657;-59
2021/07/08 03:51:58;;;;;;;8.05;7.25;;;;;;;;;;2072893;28;20203;-60
2021/07/08 03:52:58;;;;;;;9.90;8.63;;;;;;;;;;2074121;28;20586;-60
2021/07/08 03:53:59;;;;;;;10.93;7.13;;;;;;;;;;2074097;28;20176;-59
2021/07/08 03:54:59;;;;;;;8.82;7.88;;;;;;;;;;2067939;28;20652;-61
2021/07/08 03:55:59;;;;;;;8.90;8.00;;;;;;;;;;2072062;28;20258;-60
2021/07/08 03:57:00;;;;;;;8.25;7.40;;;;;;;;;;2066402;28;20173;-53
2021/07/08 03:58:00;;;;;;;8.18;7.20;;;;;;;;;;2072754;28;20832;-54
2021/07/08 03:59:00;;;;;;;8.60;7.82;;;;;;;;;;2071921;28;20224;-54
2021/07/08 04:00:01;;;;;;;8.85;7.55;;;;;;;;;;2070556;28;20177;-57
2021/07/08 04:01:01;;;;;;;8.77;8.00;;;;;;;;;;2070514;28;20181;-61
2021/07/08 04:02:01;;;;;;;7.93;7.00;;;;;;;;;;2069377;28;20169;-55
2021/07/08 04:03:03;;;;;;;8.80;7.75;;;;;;;;;;2073471;28;20161;-55
2021/07/08 04:04:03;;;;;;;9.45;7.30;;;;;;;;;;2073072;28;20173;-53
2021/07/08 04:05:04;;;;;;;8.45;7.15;;;;;;;;;;2068569;28;20533;-54
2021/07/08 04:06:04;;;;;;;8.40;7.35;;;;;;;;;;2065947;28;20573;-54
2021/07/08 04:07:05;;;;;;;8.68;7.88;;;;;;;;;;2068001;28;20181;-56
2021/07/08 04:08:06;;;;;;;8.45;7.65;;;;;;;;;;2073026;28;20165;-54
2021/07/08 04:09:06;;;;;;;8.38;7.65;;;;;;;;;;2068337;28;20180;-55
2021/07/08 04:10:07;;;;;;;9.30;8.23;;;;;;;;;;2064756;28;20174;-55
2021/07/08 04:11:07;;;;;;;12.93;9.13;;;;;;;;;;2055181;28;20243;-55
2021/07/08 04:12:08;;;;;;;10.15;7.80;;;;;;;;;;2070583;28;20188;-57
2021/07/08 04:13:10;;;;;;;9.05;7.22;;;;;;;;;;2069679;28;20189;-60
2021/07/08 04:14:10;;;;;;;8.18;7.47;;;;;;;;;;2068597;28;20189;-57
2021/07/08 04:15:10;;;;;;;8.50;7.68;;;;;;;;;;2070753;28;20211;-59
2021/07/08 04:16:11;;;;;;;7.68;6.53;;;;;;;;;;2072767;28;20212;-57
2021/07/08 04:17:11;;;;;;;9.38;7.18;;;;;;;;;;2071987;28;20179;-56
2021/07/08 04:18:12;;;;;;;8.13;7.35;;;;;;;;;;2071070;28;20701;-57
2021/07/08 04:19:12;;;;;;;6.85;6.32;;;;;;;;;;2065669;28;20166;-55
2021/07/08 04:20:14;;;;;;;6.95;6.22;;;;;;;;;;2068778;28;20597;-59
2021/07/08 04:21:15;;;;;;;8.13;7.05;;;;;;;;;;2069741;28;20156;-58
2021/07/08 04:22:15;;;;;;;7.55;6.53;;;;;;;;;;2064399;28;20520;-59
2021/07/08 04:23:16;;;;;;;7.93;7.18;;;;;;;;;;2064295;28;20173;-57
2021/07/08 04:24:16;;;;;;;7.28;6.53;;;;;;;;;;2069470;28;20207;-55
2021/07/08 04:25:17;;;;;;;7.20;6.60;;;;;;;;;;2070992;28;20177;-60
2021/07/08 04:26:18;;;;;;;10.65;7.47;;;;;;;;;;2068831;28;20185;-60
2021/07/08 04:27:18;;;;;;;6.97;6.38;;;;;;;;;;2067814;28;20176;-59
2021/07/08 04:28:18;;;;;;;6.35;5.85;;;;;;;;;;2072357;28;20184;-59
2021/07/08 04:29:19;;;;;;;6.47;5.97;;;;;;;;;;2072392;28;20180;-57
2021/07/08 04:30:21;;;;;;;6.63;6.03;;;;;;;;;;2071971;28;20290;-61
2021/07/08 04:31:21;;;;;;;6.10;5.57;;;;;;;;;;2076372;28;20456;-57
2021/07/08 04:32:22;;;;;;;6.75;6.20;;;;;;;;;;2079512;28;20649;-56
2021/07/08 04:33:22;;;;;;;7.55;5.97;;;;;;;;;;2072438;28;20177;-58
2021/07/08 04:34:22;;;;;;;6.95;6.25;;;;;;;;;;2071817;28;20176;-57
2021/07/08 04:35:28;;;;;;;7.65;6.75;;;;;;;;;;2070556;28;20204;-58
2021/07/08 04:36:29;;;;;;;10.75;6.75;;;;;;;;;;2063177;28;20168;-55
2021/07/08 04:37:29;;;;;;;8.05;7.00;;;;;;;;;;2071069;28;20654;-56
2021/07/08 04:38:29;;;;;;;8.23;6.82;;;;;;;;;;2073129;28;20587;-57
2021/07/08 04:39:30;;;;;;;6.80;6.28;;;;;;;;;;2062662;28;20189;-58
2021/07/08 04:40:30;;;;;;;7.47;6.38;;;;;;;;;;2063986;28;20647;-63
2021/07/08 04:41:30;;;;;;;7.53;6.43;;;;;;;;;;2065464;28;20203;-58
2021/07/08 04:42:30;;;;;;;6.82;6.15;;;;;;;;;;2072346;28;20165;-59
2021/07/08 04:43:31;;;;;;;6.63;6.03;;;;;;;;;;2071992;28;20188;-57
2021/07/08 04:44:31;;;;;;;7.72;7.13;;;;;;;;;;2072582;28;20185;-59
2021/07/08 04:45:31;;;;;;;7.75;7.00;;;;;;;;;;2065672;28;20178;-57
2021/07/08 04:46:32;;;;;;;5.93;5.32;;;;;;;;;;2065464;28;20224;-60
2021/07/08 04:47:33;;;;;;;5.95;5.55;;;;;;;;;;2072521;28;20181;-60
2021/07/08 04:48:33;;;;;;;6.75;5.57;;;;;;;;;;2066918;28;20197;-58
2021/07/08 04:49:34;;;;;;;6.40;5.80;;;;;;;;;;2065159;28;20182;-58
2021/07/08 04:50:35;;;;;;;6.30;5.22;;;;;;;;;;2065016;28;20169;-59
2021/07/08 04:51:36;;;;;;;7.30;6.60;;;;;;;;;;2069973;28;20572;-57
2021/07/08 04:52:37;;;;;;;11.90;10.63;;;;;;;;;;2073339;28;20177;-58
2021/07/08 04:53:38;;;;;;;6.95;6.32;;;;;;;;;;2073604;28;20180;-60
2021/07/08 04:54:38;;;;;;;7.65;6.60;;;;;;;;;;2070906;28;20190;-60
2021/07/08 04:55:38;;;;;;;8.75;6.43;;;;;;;;;;2066380;28;20264;-61
2021/07/08 04:56:39;;;;;;;8.15;6.72;;;;;;;;;;2075458;28;20180;-57
2021/07/08 04:57:39;;;;;;;6.53;6.00;;;;;;;;;;2064796;28;20222;-58
2021/07/08 04:58:39;;;;;;;7.13;6.53;;;;;;;;;;2072324;28;20197;-56
2021/07/08 04:59:40;;;;;;;6.60;6.00;;;;;;;;;;2066142;28;20205;-56
2021/07/08 05:00:40;;;;;;;7.38;5.72;;;;;;;;;;2065325;28;20648;-57
2021/07/08 05:01:40;;;;;;;6.60;6.10;;;;;;;;;;2072122;28;20574;-56
2021/07/08 05:02:41;;;;;;;6.47;5.88;;;;;;;;;;2072384;28;20300;-58
2021/07/08 05:03:42;;;;;;;7.30;6.60;;;;;;;;;;2072195;28;20181;-57
2021/07/08 05:04:42;;;;;;;6.10;5.57;;;;;;;;;;2071917;28;20204;-56
2021/07/08 05:05:42;;;;;;;5.40;5.00;;;;;;;;;;2071949;28;20227;-54
2021/07/08 05:06:42;;;;;;;6.13;5.40;;;;;;;;;;2071987;28;20173;-56
2021/07/08 05:07:43;;;;;;;5.88;5.28;;;;;;;;;;2073167;28;22126;-52
2021/07/08 05:08:43;;;;;;;6.85;5.80;;;;;;;;;;2066234;28;20185;-58
2021/07/08 05:09:43;;;;;;;5.50;5.00;;;;;;;;;;2072253;28;20188;-55
2021/07/08 05:10:44;;;;;;;8.38;5.43;;;;;;;;;;2072027;28;20184;-57
2021/07/08 05:11:44;;;;;;;5.80;5.40;;;;;;;;;;2071871;28;20203;-50
2021/07/08 05:12:44;;;;;;;7.57;4.75;;;;;;;;;;2071133;28;20177;-54
2021/07/08 05:13:44;;;;;;;5.00;4.60;;;;;;;;;;2071870;28;20169;-52
2021/07/08 05:14:46;;;;;;;6.75;5.13;;;;;;;;;;2071894;28;20288;-56
2021/07/08 05:15:47;;;;;;;7.00;5.65;;;;;;;;;;2072184;28;20523;-51
2021/07/08 05:16:47;;;;;;;5.82;5.22;;;;;;;;;;2070246;28;20223;-57
2021/07/08 05:17:48;;;;;;;5.88;5.25;;;;;;;;;;2072266;28;20185;-54
2021/07/08 05:18:49;;;;;;;7.18;5.05;;;;;;;;;;2072532;28;20219;-56
2021/07/08 05:19:49;;;;;;;7.65;5.68;;;;;;;;;;2072118;28;20185;-55
2021/07/08 05:20:50;;;;;;;5.55;5.05;;;;;;;;;;2072486;28;20181;-56
2021/07/08 05:21:50;;;;;;;5.70;5.20;;;;;;;;;;2070989;28;20194;-55
2021/07/08 05:22:57;;;;;;;7.97;5.65;;;;;;;;;;2072146;28;20218;-57
2021/07/08 05:24:00;;;;;;;6.10;5.47;;;;;;;;;;2071103;28;20186;-55
2021/07/08 05:25:01;;;;;;;5.97;5.22;;;;;;;;;;2073119;28;20154;-55
2021/07/08 05:26:01;;;;;;;11.43;6.70;;;;;;;;;;2075530;28;20193;-57
2021/07/08 05:27:02;;;;;;;9.65;5.50;;;;;;;;;;2076367;28;20248;-56
2021/07/08 05:28:03;;;;;;;5.68;5.25;;;;;;;;;;2072289;28;20173;-56
2021/07/08 05:29:03;;;;;;;5.70;5.25;;;;;;;;;;2069531;28;20248;-57
2021/07/08 05:30:05;;;;;;;6.25;5.65;;;;;;;;;;2072147;28;21841;-54
2021/07/08 05:31:05;;;;;;;6.72;4.88;;;;;;;;;;2068499;28;20177;-53
2021/07/08 05:32:06;;;;;;;5.78;5.28;;;;;;;;;;2071927;28;20260;-56
2021/07/08 05:33:06;;;;;;;8.35;5.38;;;;;;;;;;2071051;28;20264;-56
2021/07/08 05:34:06;;;;;;;7.65;5.40;;;;;;;;;;2071700;28;20203;-54
2021/07/08 05:35:07;;;;;;;5.40;5.00;;;;;;;;;;2068306;28;20817;-59
2021/07/08 05:36:07;;;;;;;9.15;5.47;;;;;;;;;;2071643;28;20216;-54
2021/07/08 05:37:08;;;;;;;9.48;5.50;;;;;;;;;;2067409;28;20705;-56
2021/07/08 05:38:08;;;;;;;6.18;5.68;;;;;;;;;;2069135;28;21005;-57
2021/07/08 05:39:09;;;;;;;6.13;5.60;;;;;;;;;;2069355;28;20209;-56
2021/07/08 05:40:09;;;;;;;5.80;5.20;;;;;;;;;;2065648;28;20198;-51
2021/07/08 05:41:10;;;;;;;5.97;5.10;;;;;;;;;;2067382;28;20183;-58
2021/07/08 05:42:10;;;;;;;5.90;5.40;;;;;;;;;;2071747;28;20180;-57
2021/07/08 05:43:10;;;;;;;5.68;5.13;;;;;;;;;;2069551;28;20183;-60
2021/07/08 05:44:10;;;;;;;5.63;5.13;;;;;;;;;;2072097;28;20176;-56
2021/07/08 05:45:11;;;;;;;5.57;4.90;;;;;;;;;;2069249;28;20323;-53
2021/07/08 05:46:11;;;;;;;7.20;5.38;;;;;;;;;;2071784;28;20176;-53
2021/07/08 05:47:12;;;;;;;5.85;5.35;;;;;;;;;;2069398;28;20180;-55
2021/07/08 05:48:12;;;;;;;6.03;5.25;;;;;;;;;;2071439;28;20671;-55
2021/07/08 05:49:13;;;;;;;6.28;5.47;;;;;;;;;;2069578;28;20188;-54
2021/07/08 05:50:13;;;;;;;5.88;5.47;;;;;;;;;;2070647;28;20201;-57
2021/07/08 05:51:13;;;;;;;5.50;5.10;;;;;;;;;;2068385;28;20665;-53
2021/07/08 05:52:14;;;;;;;6.30;5.70;;;;;;;;;;2074010;28;20327;-57
2021/07/08 05:53:14;;;;;;;5.32;4.82;;;;;;;;;;2073601;28;20181;-58
2021/07/08 05:54:14;;;;;;;8.35;5.93;;;;;;;;;;2072152;28;20173;-55
2021/07/08 05:55:15;;;;;;;6.68;5.93;;;;;;;;;;2072878;28;20188;-57
2021/07/08 05:56:15;;;;;;;6.35;5.35;;;;;;;;;;2074028;28;20177;-56
2021/07/08 05:57:15;;;;;;;5.40;4.90;;;;;;;;;;2070294;28;20547;-52
2021/07/08 05:58:15;;;;;;;4.88;4.47;;;;;;;;;;2072866;28;20637;-55
2021/07/08 05:59:15;;;;;;;5.55;5.05;;;;;;;;;;2069689;28;20176;-52
2021/07/08 06:00:17;;;;;;;5.57;5.13;;;;;;;;;;2076196;28;20552;-59
2021/07/08 06:01:18;;;;;;;5.88;5.30;;;;;;;;;;2068927;28;20223;-59
2021/07/08 06:02:19;;;;;;;5.82;5.10;;;;;;;;;;2070883;28;20177;-61